Time;durP1;ratioP1;P1;durP2;ratioP2;P2;SDS_P1;SDS_P2;PMS_P1;PMS_P2;Temp;Humidity;BMP_temperature;BMP_pressure;BME280_temperature;BME280_humidity;BME280_pressure;Samples;Min_cycle;Max_cycle;Signal;HPM_P1;HPM_P2
2022/01/22 00:01:47;;;;;;;7.88;3.75;;;;;;;1.00;45.88;93877.53;2071359;69;20158;-69
2022/01/22 00:04:14;;;;;;;9.48;4.03;;;;;;;0.94;45.90;93880.38;2071701;69;20148;-71
2022/01/22 00:06:39;;;;;;;6.63;3.83;;;;;;;0.94;45.82;93885.91;2071437;69;20160;-69
2022/01/22 00:09:06;;;;;;;7.22;3.70;;;;;;;0.95;45.90;93889.44;2071184;69;20176;-73
2022/01/22 00:11:37;;;;;;;8.52;3.67;;;;;;;0.94;46.15;93885.16;2069685;69;20232;-70
2022/01/22 00:16:48;;;;;;;14.90;5.45;;;;;;;0.93;46.54;93892.00;2067756;69;20136;-69
2022/01/22 00:19:14;;;;;;;13.23;5.38;;;;;;;0.90;46.62;93884.69;2064251;69;20843;-69
2022/01/22 00:21:40;;;;;;;15.27;5.30;;;;;;;0.85;46.44;93883.50;2067890;69;20168;-73
2022/01/22 00:24:09;;;;;;;9.80;4.53;;;;;;;0.72;47.89;93884.09;2067909;69;20168;-71
2022/01/22 00:26:35;;;;;;;10.15;4.63;;;;;;;0.83;47.81;93877.72;2068029;69;20158;-72
2022/01/22 00:29:01;;;;;;;9.10;4.53;;;;;;;0.83;47.81;93886.03;2067616;69;20599;-68
2022/01/22 00:31:27;;;;;;;12.25;4.15;;;;;;;0.83;47.19;93877.72;2070603;69;20147;-69
2022/01/22 00:33:52;;;;;;;9.73;4.28;;;;;;;0.86;46.58;93857.25;2070891;69;20508;-68
2022/01/22 00:36:18;;;;;;;10.80;4.20;;;;;;;0.88;46.75;93862.31;2070966;69;20155;-68
2022/01/22 00:38:44;;;;;;;9.65;4.10;;;;;;;0.87;46.23;93850.47;2070479;69;20148;-67
2022/01/22 00:41:10;;;;;;;10.77;4.75;;;;;;;0.94;46.05;93847.09;2067473;69;20137;-67
2022/01/22 00:43:36;;;;;;;16.17;4.57;;;;;;;0.94;46.09;93838.03;2071255;69;20160;-68
2022/01/22 00:46:02;;;;;;;10.63;4.28;;;;;;;0.92;46.40;93835.78;2065097;69;20151;-68
2022/01/22 00:48:27;;;;;;;8.27;4.00;;;;;;;0.98;46.59;93825.38;2070895;69;20159;-67
2022/01/22 00:50:56;;;;;;;6.90;2.75;;;;;;;1.02;45.31;93828.59;2070755;69;20148;-67
2022/01/22 00:53:23;;;;;;;5.97;2.85;;;;;;;1.01;43.88;93829.13;2067574;69;20616;-68
2022/01/22 00:55:50;;;;;;;6.82;2.50;;;;;;;1.08;44.41;93831.31;2064876;69;20168;-67
2022/01/22 00:58:16;;;;;;;5.85;2.65;;;;;;;0.97;44.87;93829.44;2070641;69;20164;-68
2022/01/22 01:00:42;;;;;;;4.63;2.30;;;;;;;0.99;45.19;93831.66;2071323;69;20586;-66
2022/01/22 01:03:07;;;;;;;8.68;3.53;;;;;;;0.84;46.23;93817.47;2070368;69;20148;-67
2022/01/22 01:05:34;;;;;;;11.30;4.72;;;;;;;0.79;46.88;93807.19;2064889;69;20611;-68
2022/01/22 01:08:00;;;;;;;9.95;4.45;;;;;;;0.87;47.20;93816.41;2067615;69;20127;-67
2022/01/22 01:10:27;;;;;;;11.77;5.20;;;;;;;0.81;47.96;93821.28;2070296;69;20608;-68
2022/01/22 01:12:53;;;;;;;9.10;4.35;;;;;;;0.75;48.07;93818.56;2070097;69;20144;-67
2022/01/22 01:32:10;;;;;;;11.57;4.70;;;;;;;0.90;47.28;93818.91;2067933;69;20558;-67
2022/01/22 01:32:16;;;;;;;12.73;4.25;;;;;;;0.91;47.49;93827.97;2068005;69;20228;-70
2022/01/22 01:34:44;;;;;;;12.02;4.10;;;;;;;0.94;47.86;93826.94;2064200;69;20597;-68
2022/01/22 01:37:16;;;;;;;7.57;3.55;;;;;;;0.95;47.09;93823.63;2067652;69;20140;-69
2022/01/22 01:39:45;;;;;;;8.57;3.60;;;;;;;0.90;47.34;93826.47;2067233;69;20211;-68
2022/01/22 01:42:17;;;;;;;8.68;3.67;;;;;;;0.87;47.34;93825.50;2067482;69;20636;-68
2022/01/22 01:44:44;;;;;;;10.00;3.80;;;;;;;0.90;47.18;93823.69;2066302;69;20588;-68
2022/01/22 01:47:15;;;;;;;8.40;3.53;;;;;;;0.93;46.54;93811.56;2068039;69;20213;-68
2022/01/22 01:49:41;;;;;;;8.57;3.33;;;;;;;0.95;46.65;93811.78;2070683;69;20136;-70
2022/01/22 01:52:27;;;;;;;6.78;3.50;;;;;;;0.88;46.19;93809.63;2067979;69;20148;-68
2022/01/22 01:55:08;;;;;;;6.65;3.38;;;;;;;0.95;46.46;93801.44;2071059;69;20180;-70
2022/01/22 01:57:38;;;;;;;6.43;3.47;;;;;;;0.99;46.96;93807.47;2065792;69;20163;-68
2022/01/22 02:00:08;;;;;;;;;;;;;;;0.99;46.81;93804.69;2068715;69;20152;-69
2022/01/22 02:02:45;;;;;;;6.40;2.88;;;;;;;0.99;46.64;93796.38;2068662;69;20145;-68
2022/01/22 02:05:15;;;;;;;11.82;4.05;;;;;;;0.74;48.02;93798.41;2067713;69;20628;-69
2022/01/22 02:07:43;;;;;;;14.32;4.50;;;;;;;0.41;48.94;93795.97;2065026;69;20663;-69
2022/01/22 02:10:17;;;;;;;12.60;4.13;;;;;;;0.68;48.02;93786.63;2070253;69;20194;-68
2022/01/22 02:23:51;;;;;;;7.05;3.13;;;;;;;0.81;46.42;93771.38;2064841;69;20138;-68
2022/01/22 02:26:19;;;;;;;6.50;2.40;;;;;;;0.90;45.87;93771.03;2067802;69;20213;-69
2022/01/22 02:28:50;;;;;;;7.40;2.72;;;;;;;1.07;46.95;93768.06;2067644;69;20214;-69
2022/01/22 02:31:41;;;;;;;5.38;2.33;;;;;;;0.83;45.42;93769.59;2067849;69;20279;-68
2022/01/22 02:34:44;;;;;;;5.18;2.20;;;;;;;0.97;44.89;93767.66;2070392;69;20247;-68
2022/01/22 02:37:04;;;;;;;3.80;2.23;;;;;;;0.89;44.46;93770.28;2067339;69;20213;-69
2022/01/22 02:39:40;;;;;;;5.05;2.83;;;;;;;0.91;44.31;93758.66;2067443;69;20246;-69
2022/01/22 02:42:07;;;;;;;5.80;2.80;;;;;;;0.86;44.23;93765.00;2067333;69;20669;-69
2022/01/22 02:44:44;;;;;;;5.30;2.42;;;;;;;0.83;44.31;93769.59;2070305;69;20513;-70
2022/01/22 02:47:12;;;;;;;5.63;2.78;;;;;;;0.68;43.97;93772.75;2070178;69;20171;-71
2022/01/22 02:49:41;;;;;;;6.72;2.88;;;;;;;0.84;44.08;93773.13;2067818;69;20140;-69
2022/01/22 02:52:10;;;;;;;4.87;2.47;;;;;;;0.90;44.32;93782.84;2067344;69;20140;-70
2022/01/22 02:54:39;;;;;;;5.25;2.60;;;;;;;0.81;43.94;93774.91;2064853;69;20303;-69
2022/01/22 02:57:08;;;;;;;4.40;2.42;;;;;;;0.74;44.83;93784.56;2070230;69;20624;-68
2022/01/22 02:59:34;;;;;;;5.07;2.60;;;;;;;0.90;43.44;93788.41;2070471;69;20156;-69
2022/01/22 03:02:02;;;;;;;5.43;2.47;;;;;;;1.01;44.26;93790.31;2064597;69;20152;-68
2022/01/22 03:04:31;;;;;;;5.47;2.63;;;;;;;0.99;44.24;93796.38;2069936;69;20163;-68
2022/01/22 03:06:56;;;;;;;9.75;2.58;;;;;;;1.04;43.96;93797.56;2066980;69;20141;-69
2022/01/22 03:09:28;;;;;;;6.05;2.35;;;;;;;1.05;43.33;93806.63;2060183;69;20223;-69
2022/01/22 03:23:08;;;;;;;4.95;2.22;;;;;;;1.23;43.34;93792.03;2060909;69;20163;-69
2022/01/22 03:28:51;;;;;;;4.80;2.20;;;;;;;1.29;44.05;93778.13;2051268;70;20668;-69
2022/01/22 03:31:17;;;;;;;4.40;2.28;;;;;;;1.17;43.42;93774.72;2051379;70;20602;-73
2022/01/22 03:33:42;;;;;;;6.43;2.50;;;;;;;0.68;43.59;93774.78;2060155;69;20145;-69
2022/01/22 03:36:08;;;;;;;7.50;2.40;;;;;;;0.83;44.17;93774.41;2067247;69;20612;-72
2022/01/22 03:38:34;;;;;;;5.28;2.42;;;;;;;0.85;43.23;93769.81;2064588;69;20256;-72
2022/01/22 03:41:00;;;;;;;5.03;2.53;;;;;;;0.91;43.48;93761.41;2065097;69;20144;-70
2022/01/22 03:43:27;;;;;;;7.43;2.72;;;;;;;1.05;44.00;93759.50;2067313;69;20163;-71
2022/01/22 03:45:53;;;;;;;5.93;2.63;;;;;;;1.02;43.11;93753.72;2065150;69;20255;-69
2022/01/22 03:48:19;;;;;;;5.80;2.30;;;;;;;1.18;43.38;93751.25;2067320;69;20515;-69
2022/01/22 03:50:45;;;;;;;4.15;2.00;;;;;;;1.08;43.70;93752.91;2067183;69;20148;-73
2022/01/22 03:53:10;;;;;;;4.70;2.17;;;;;;;0.86;43.05;93757.44;2067336;69;20168;-73
2022/01/22 03:58:20;;;;;;;2.78;1.90;;;;;;;0.79;44.26;93754.53;2065095;69;20144;-72
2022/01/22 04:01:09;;;;;;;7.05;2.05;;;;;;;0.79;44.09;93752.50;2064642;69;20149;-72
2022/01/22 04:03:39;;;;;;;4.88;2.00;;;;;;;1.00;43.92;93753.50;2067328;69;20237;-71
2022/01/22 04:08:37;;;;;;;7.22;2.10;;;;;;;1.05;43.52;93754.69;2064474;69;20160;-73
2022/01/22 04:11:08;;;;;;;5.75;1.80;;;;;;;1.12;43.37;93748.56;2065103;69;20156;-73
2022/01/22 04:13:36;;;;;;;8.10;2.13;;;;;;;1.20;43.23;93752.25;2064537;69;20180;-70
2022/01/22 04:16:03;;;;;;;5.18;2.30;;;;;;;0.94;43.88;93743.75;2064857;69;20493;-70
2022/01/22 04:26:53;;;;;;;4.50;2.00;;;;;;;1.13;43.52;93743.75;2064833;69;20156;-71
2022/01/22 04:29:25;;;;;;;4.57;1.88;;;;;;;1.12;43.80;93731.91;2064981;69;20573;-69
2022/01/22 04:31:52;;;;;;;4.43;2.13;;;;;;;0.99;43.13;93738.13;2064998;69;20176;-70
2022/01/22 04:34:18;;;;;;;3.95;1.98;;;;;;;0.82;43.76;93742.38;2067112;69;20176;-70
2022/01/22 04:36:45;;;;;;;4.57;1.80;;;;;;;1.07;43.07;93740.31;2067207;69;20236;-70
2022/01/22 04:39:11;;;;;;;5.50;2.08;;;;;;;1.10;42.87;93739.25;2067200;69;20227;-69
2022/01/22 04:41:37;;;;;;;3.70;1.80;;;;;;;1.18;42.53;93729.06;2064915;69;20517;-71
2022/01/22 04:44:06;;;;;;;2.70;1.63;;;;;;;1.22;43.30;93738.59;2065043;69;20129;-68
2022/01/22 04:57:18;;;;;;;14.55;5.80;;;;;;;1.18;43.10;93756.81;2064381;69;20588;-68
2022/01/22 04:59:45;;;;;;;14.52;6.18;;;;;;;1.08;43.35;93758.47;2067210;69;20184;-69
2022/01/22 05:02:10;;;;;;;41.05;14.65;;;;;;;0.89;43.90;93752.91;2064397;69;20599;-68
2022/01/22 05:04:55;;;;;;;33.60;11.35;;;;;;;1.09;43.64;93757.19;2065203;69;20148;-69
2022/01/22 05:07:41;;;;;;;25.00;9.73;;;;;;;1.12;43.92;93767.22;2066036;69;20532;-69
2022/01/22 05:10:39;;;;;;;13.55;6.32;;;;;;;1.14;44.81;93754.31;2063596;69;20149;-72
2022/01/22 05:13:04;;;;;;;14.00;6.20;;;;;;;1.10;45.33;93756.66;2065327;69;20509;-69
2022/01/22 05:15:30;;;;;;;17.35;6.90;;;;;;;1.17;45.05;93750.50;2068211;69;20144;-69
2022/01/22 05:17:57;;;;;;;17.80;6.65;;;;;;;1.18;45.04;93760.31;2071100;69;20175;-69
2022/01/22 05:20:30;;;;;;;15.20;6.72;;;;;;;1.18;44.96;93762.34;2070965;69;20235;-72
2022/01/22 05:23:06;;;;;;;14.52;5.47;;;;;;;1.21;44.98;93759.28;2068246;69;20511;-73
2022/01/22 05:25:38;;;;;;;14.70;5.57;;;;;;;1.24;45.18;93763.78;2068321;69;20171;-72
2022/01/22 05:37:00;;;;;;;9.00;3.78;;;;;;;1.20;46.31;93766.13;2063637;69;20670;-75
2022/01/22 05:39:31;;;;;;;6.95;2.67;;;;;;;0.88;46.51;93771.56;2071539;69;20168;-73
2022/01/22 05:41:59;;;;;;;9.98;3.58;;;;;;;1.06;45.88;93770.09;2068714;69;20179;-74
2022/01/22 05:44:25;;;;;;;13.05;3.65;;;;;;;1.15;46.46;93778.03;2072064;69;20220;-70
2022/01/22 05:46:54;;;;;;;8.80;3.67;;;;;;;1.13;46.92;93783.34;2068682;69;20297;-69
2022/01/22 05:49:22;;;;;;;8.07;3.22;;;;;;;1.06;47.29;93780.44;2071988;69;20186;-73
2022/01/22 05:51:49;;;;;;;10.32;4.10;;;;;;;1.08;46.70;93788.97;2068685;69;20519;-72
2022/01/22 05:54:53;;;;;;;10.55;3.95;;;;;;;1.09;46.98;93782.88;2068686;69;20144;-70
2022/01/22 06:00:07;;;;;;;10.13;4.70;;;;;;;1.20;47.24;93785.53;2068678;69;20550;-69
2022/01/22 06:02:45;;;;;;;8.05;4.03;;;;;;;1.26;46.83;93780.66;2072062;69;20653;-69
2022/01/22 06:05:11;;;;;;;8.60;4.30;;;;;;;1.15;46.63;93780.06;2071214;69;20658;-72
2022/01/22 06:07:37;;;;;;;8.02;3.90;;;;;;;1.11;46.55;93776.84;2068625;69;20614;-69
2022/01/22 06:10:15;;;;;;;12.70;6.43;;;;;;;0.92;47.04;93771.25;2068651;69;20164;-74
2022/01/22 06:12:58;;;;;;;10.07;5.38;;;;;;;0.95;46.54;93765.41;2072119;69;20543;-70
2022/01/22 06:15:26;;;;;;;14.75;5.85;;;;;;;1.08;45.99;93766.78;2068654;69;20632;-69
2022/01/22 06:18:12;;;;;;;10.60;4.50;;;;;;;1.23;45.98;93769.84;2068176;69;20237;-70
2022/01/22 06:20:38;;;;;;;9.30;4.70;;;;;;;1.10;46.22;93773.31;2071346;69;20152;-70
2022/01/22 06:23:04;;;;;;;11.68;6.13;;;;;;;1.10;47.01;93773.31;2068617;69;20182;-73
2022/01/22 06:25:30;;;;;;;9.70;5.28;;;;;;;1.14;46.88;93764.66;2068632;69;20228;-74
2022/01/22 06:27:56;;;;;;;8.75;5.18;;;;;;;1.20;46.66;93773.69;2068633;69;20168;-71
2022/01/22 06:30:23;;;;;;;18.20;5.43;;;;;;;1.10;47.07;93755.91;2068686;69;20231;-69
2022/01/22 06:32:53;;;;;;;9.38;4.47;;;;;;;1.19;46.71;93763.84;2071544;69;20168;-70
2022/01/22 06:35:18;;;;;;;7.53;4.07;;;;;;;1.04;46.71;93777.41;2071819;69;20286;-70
2022/01/22 06:37:44;;;;;;;8.25;3.88;;;;;;;0.93;46.64;93790.16;2071969;69;20172;-69
2022/01/22 06:43:36;;;;;;;12.20;6.32;;;;;;;1.18;45.25;93790.84;2071957;69;20191;-71
2022/01/22 06:46:16;;;;;;;17.35;4.60;;;;;;;0.79;48.49;93793.34;2068552;69;20183;-74
2022/01/22 06:48:55;;;;;;;12.30;4.30;;;;;;;1.16;47.42;93790.63;2068540;69;20524;-72
2022/01/22 06:51:28;;;;;;;11.10;4.30;;;;;;;1.15;47.58;93799.47;2068621;69;20245;-70
2022/01/22 06:53:56;;;;;;;12.00;4.30;;;;;;;1.20;47.49;93799.41;2068565;69;20148;-72
2022/01/22 06:56:22;;;;;;;10.85;4.20;;;;;;;1.08;48.08;93800.06;2068574;69;20148;-70
2022/01/22 06:59:10;;;;;;;10.93;4.32;;;;;;;0.95;47.67;93795.16;2068602;69;20230;-70
2022/01/22 07:01:37;;;;;;;12.40;4.43;;;;;;;1.10;47.44;93798.28;2068582;69;20251;-71
2022/01/22 07:04:09;;;;;;;8.82;4.65;;;;;;;1.17;47.44;93791.38;2068527;69;20314;-69
2022/01/22 07:06:58;;;;;;;12.90;4.10;;;;;;;1.22;47.39;93793.31;2066735;69;20144;-72
2022/01/22 07:09:24;;;;;;;10.45;4.15;;;;;;;1.28;47.09;93796.75;2068548;69;20163;-71
2022/01/22 07:11:50;;;;;;;9.55;3.90;;;;;;;1.04;47.97;93803.13;2068550;69;20596;-72
2022/01/22 07:14:16;;;;;;;13.90;4.07;;;;;;;1.14;48.05;93809.06;2071403;69;20171;-70
2022/01/22 07:16:42;;;;;;;8.27;4.20;;;;;;;1.28;48.26;93807.88;2071391;69;20314;-67
2022/01/22 07:19:24;;;;;;;16.55;4.50;;;;;;;1.15;48.04;93813.34;2068399;69;20519;-68
2022/01/22 07:22:04;;;;;;;12.27;4.93;;;;;;;1.32;47.63;93808.31;2071320;69;20182;-71
2022/01/22 07:24:40;;;;;;;10.98;5.10;;;;;;;1.38;47.55;93802.72;2068508;69;20141;-70
2022/01/22 07:27:07;;;;;;;12.90;5.40;;;;;;;1.22;49.06;93804.41;2068433;69;20163;-69
2022/01/22 07:29:32;;;;;;;11.73;5.25;;;;;;;1.26;48.49;93802.09;2071818;69;20144;-71
2022/01/22 07:32:01;;;;;;;13.45;5.72;;;;;;;1.43;47.97;93810.22;2068496;69;20209;-68
2022/01/22 07:34:27;;;;;;;13.57;5.68;;;;;;;1.37;48.17;93798.44;2068400;69;20144;-70
2022/01/22 07:37:02;;;;;;;15.43;5.50;;;;;;;1.44;48.65;93803.38;2068431;69;20141;-69
2022/01/22 07:39:29;;;;;;;13.25;5.03;;;;;;;1.36;48.45;93805.25;2068451;69;20627;-69
2022/01/22 07:42:13;;;;;;;16.30;5.80;;;;;;;1.41;48.22;93807.19;2069064;69;20242;-69
2022/01/22 07:44:58;;;;;;;18.35;6.38;;;;;;;1.55;48.13;93806.00;2071890;69;20175;-69
2022/01/22 07:47:24;;;;;;;21.10;8.27;;;;;;;1.22;48.87;93809.97;2068435;69;20576;-70
2022/01/22 07:49:52;;;;;;;22.48;8.95;;;;;;;1.52;48.04;93807.06;2068169;69;20218;-73
2022/01/22 07:52:18;;;;;;;16.58;7.53;;;;;;;1.58;48.93;93796.63;2068485;69;20144;-73
2022/01/22 07:54:43;;;;;;;15.35;7.22;;;;;;;1.59;48.63;93789.06;2068443;69;20136;-70
2022/01/22 07:57:09;;;;;;;19.15;7.53;;;;;;;1.66;48.26;93794.00;2068369;69;20160;-70
2022/01/22 07:59:35;;;;;;;17.20;8.80;;;;;;;1.69;47.99;93795.72;2068440;69;20181;-70
2022/01/22 08:02:04;;;;;;;20.75;9.98;;;;;;;1.65;47.66;93789.72;2068404;69;20532;-69
2022/01/22 08:04:35;;;;;;;22.00;9.23;;;;;;;1.78;47.67;93800.88;2071726;69;20235;-68
2022/01/22 08:07:44;;;;;;;14.30;6.40;;;;;;;1.83;46.94;93804.84;2057412;69;20510;-70
2022/01/22 08:10:39;;;;;;;18.45;8.05;;;;;;;1.79;46.29;93810.72;2048400;69;20174;-69
2022/01/22 08:13:04;;;;;;;27.20;8.27;;;;;;;1.35;48.69;93818.38;2064150;69;20144;-69
2022/01/22 08:15:30;;;;;;;12.57;6.13;;;;;;;1.69;48.39;93813.13;2068380;69;20140;-69
2022/01/22 08:17:56;;;;;;;16.42;6.13;;;;;;;1.66;48.77;93814.19;2068406;69;20382;-71
2022/01/22 08:20:22;;;;;;;15.50;6.30;;;;;;;1.88;48.27;93815.13;2068327;69;20569;-70
2022/01/22 08:22:52;;;;;;;20.45;7.40;;;;;;;2.04;48.41;93830.81;2071700;69;20665;-70
2022/01/22 08:25:48;;;;;;;23.15;7.95;;;;;;;2.11;48.65;93812.75;2068360;69;20303;-70
2022/01/22 08:28:53;;;;;;;17.92;7.75;;;;;;;1.95;48.71;93814.53;2066161;69;20535;-69
2022/01/22 08:31:37;;;;;;;22.42;11.27;;;;;;;1.89;47.60;93822.22;2068378;69;20164;-74
2022/01/22 08:36:54;;;;;;;23.13;9.70;;;;;;;2.22;47.38;93813.34;2068370;69;20516;-71
2022/01/22 08:39:20;;;;;;;18.13;9.07;;;;;;;2.33;46.93;93815.19;2068355;69;20152;-72
2022/01/22 08:41:47;;;;;;;22.60;10.35;;;;;;;2.43;46.93;93812.75;2068331;69;20183;-68
2022/01/22 08:44:13;;;;;;;26.77;11.80;;;;;;;2.49;47.22;93824.53;2068463;69;20154;-70
2022/01/22 08:46:39;;;;;;;21.17;11.38;;;;;;;2.49;46.62;93832.88;2071627;69;20156;-68
2022/01/22 08:49:07;;;;;;;24.05;12.27;;;;;;;2.22;47.09;93832.06;2068231;69;20150;-68
2022/01/22 08:51:39;;;;;;;32.65;17.65;;;;;;;1.96;48.50;93838.25;2068289;69;20155;-68
2022/01/22 08:54:06;;;;;;;22.17;10.07;;;;;;;2.32;48.48;93835.94;2068367;69;20222;-68
2022/01/22 08:56:32;;;;;;;21.85;8.10;;;;;;;2.58;48.42;93845.63;2068307;69;20159;-68
2022/01/22 08:58:58;;;;;;;22.35;10.23;;;;;;;2.91;47.53;93839.47;2068425;69;20148;-72
2022/01/22 09:01:41;;;;;;;26.25;13.18;;;;;;;3.04;47.07;93841.50;2068287;69;20207;-70
2022/01/22 09:04:16;;;;;;;18.90;8.95;;;;;;;3.11;46.18;93834.56;2068284;69;20136;-70
2022/01/22 09:07:00;;;;;;;33.53;8.75;;;;;;;3.11;46.11;93845.69;2071537;69;20225;-72
2022/01/22 09:09:52;;;;;;;20.38;10.07;;;;;;;2.93;46.66;93848.03;2068378;69;20595;-70
2022/01/22 09:12:43;;;;;;;36.17;17.50;;;;;;;3.22;46.11;93849.00;2068283;69;20190;-70
2022/01/22 09:15:35;;;;;;;32.13;16.60;;;;;;;3.35;46.13;93853.84;2070971;69;20634;-69
2022/01/22 09:18:03;;;;;;;29.13;15.93;;;;;;;3.46;46.18;93852.84;2068267;69;20140;-69
2022/01/22 09:21:11;;;;;;;31.60;15.90;;;;;;;3.46;45.95;93856.38;2065371;69;20160;-71
2022/01/22 09:23:19;;;;;;;38.47;15.32;;;;;;;3.55;45.70;93855.94;2066883;69;20148;-69
2022/01/22 09:25:46;;;;;;;23.15;11.88;;;;;;;3.64;45.48;93860.31;2065371;69;20148;-69
2022/01/22 09:28:13;;;;;;;25.45;12.43;;;;;;;3.69;45.17;93859.47;2065404;69;20574;-68
2022/01/22 09:30:43;;;;;;;21.85;10.05;;;;;;;3.70;44.89;93858.16;2071024;69;20511;-73
2022/01/22 09:33:09;;;;;;;20.23;9.98;;;;;;;3.60;44.94;93862.69;2068179;69;20199;-70
2022/01/22 09:35:40;;;;;;;25.77;11.50;;;;;;;3.49;44.90;93860.88;2071379;69;20168;-70
2022/01/22 09:38:26;;;;;;;30.95;16.67;;;;;;;3.63;45.04;93864.41;2071438;69;20517;-70
2022/01/22 09:41:10;;;;;;;30.58;17.52;;;;;;;3.81;44.93;93866.31;2071533;69;20183;-75
2022/01/22 09:43:50;;;;;;;25.45;13.50;;;;;;;3.92;44.54;93875.72;2068162;69;20148;-70
2022/01/22 09:46:45;;;;;;;28.85;15.98;;;;;;;3.51;45.92;93875.00;2067246;69;20155;-68
2022/01/22 09:49:31;;;;;;;30.83;14.73;;;;;;;3.59;46.48;93879.94;2065803;69;20141;-68
2022/01/22 09:52:09;;;;;;;31.60;14.75;;;;;;;3.70;46.23;93888.06;2071525;69;20626;-68
2022/01/22 09:54:55;;;;;;;27.83;13.98;;;;;;;3.43;46.78;93890.84;2069410;69;20190;-68
2022/01/22 09:57:39;;;;;;;23.15;8.15;;;;;;;3.31;47.19;93895.16;2071509;69;20187;-70
2022/01/22 10:00:31;;;;;;;15.75;7.75;;;;;;;3.52;46.61;93893.22;2066341;69;20681;-68
2022/01/22 10:03:16;;;;;;;17.23;8.32;;;;;;;3.82;46.41;93894.91;2070969;69;20589;-68
2022/01/22 10:05:45;;;;;;;24.38;9.95;;;;;;;3.87;45.86;93888.47;2067947;69;20144;-69
2022/01/22 10:08:35;;;;;;;15.38;8.85;;;;;;;4.02;45.99;93905.38;2071554;69;20142;-68
2022/01/22 10:11:27;;;;;;;18.95;8.57;;;;;;;4.06;46.48;93907.81;2071516;69;20164;-68
2022/01/22 10:14:11;;;;;;;17.30;8.05;;;;;;;4.20;45.87;93909.28;2071906;69;20622;-70
2022/01/22 10:16:40;;;;;;;14.02;6.40;;;;;;;4.29;46.09;93903.25;2072235;69;20157;-69
2022/01/22 10:19:17;;;;;;;10.40;5.10;;;;;;;4.41;46.17;93905.81;2071851;69;21158;-70
2022/01/22 10:21:57;;;;;;;12.57;6.90;;;;;;;4.20;46.69;93898.13;2072061;69;20144;-70
2022/01/22 10:24:42;;;;;;;9.20;4.10;;;;;;;4.26;47.07;93895.22;2068829;69;20140;-70
2022/01/22 10:27:32;;;;;;;11.88;5.85;;;;;;;4.42;47.01;93880.16;2068622;69;20594;-72
2022/01/22 10:30:04;;;;;;;6.00;3.50;;;;;;;4.49;46.58;93882.28;2072073;69;20155;-71
2022/01/22 10:35:24;;;;;;;5.90;2.63;;;;;;;4.72;47.10;93876.16;2071860;69;20143;-72
2022/01/22 10:38:10;;;;;;;5.65;3.00;;;;;;;4.68;46.42;93870.94;2072076;69;20159;-73
2022/01/22 10:40:38;;;;;;;4.57;2.72;;;;;;;4.49;47.27;93873.16;2072068;69;20160;-72
2022/01/22 10:43:17;;;;;;;3.42;2.17;;;;;;;4.61;48.01;93865.28;2071347;69;20188;-70
2022/01/22 10:48:55;;;;;;;8.27;3.25;;;;;;;4.57;48.54;93869.13;2072008;69;20148;-69
2022/01/22 10:51:21;;;;;;;5.30;2.80;;;;;;;4.42;49.14;93857.84;2072001;69;20168;-70
2022/01/22 10:53:50;;;;;;;3.25;1.90;;;;;;;4.16;49.70;93860.72;2071889;69;20167;-70
2022/01/22 10:56:22;;;;;;;3.47;2.00;;;;;;;4.40;49.30;93860.44;2071832;69;20176;-72
2022/01/22 10:58:54;;;;;;;4.35;2.10;;;;;;;4.73;47.98;93860.94;2068512;69;20211;-70
2022/01/22 11:01:21;;;;;;;4.97;1.90;;;;;;;4.98;47.88;93852.94;2071482;69;20152;-70
2022/01/22 11:03:47;;;;;;;5.72;2.30;;;;;;;4.92;47.83;93850.28;2071673;69;20217;-71
2022/01/22 11:06:26;;;;;;;10.02;5.00;;;;;;;5.02;47.20;93851.28;2071799;69;20183;-70
2022/01/22 11:08:55;;;;;;;7.85;3.92;;;;;;;4.94;47.49;93849.75;2071857;69;20144;-67
2022/01/22 11:11:23;;;;;;;5.43;2.95;;;;;;;4.93;47.37;93851.03;2068558;69;20243;-68
2022/01/22 11:13:48;;;;;;;9.60;3.15;;;;;;;4.89;47.24;93842.25;2071997;69;20132;-69
2022/01/22 11:16:19;;;;;;;4.93;2.85;;;;;;;5.02;47.18;93839.38;2071887;69;20202;-70
2022/01/22 11:18:50;;;;;;;7.45;2.95;;;;;;;5.08;47.54;93834.41;2071312;69;20140;-71
2022/01/22 11:21:17;;;;;;;9.38;3.58;;;;;;;5.18;47.98;93835.41;2071991;69;20168;-74
2022/01/22 11:23:44;;;;;;;4.55;2.72;;;;;;;5.24;48.15;93835.25;2071780;69;20155;-76
2022/01/22 11:26:10;;;;;;;3.53;2.20;;;;;;;5.27;48.62;93840.50;2071808;69;20140;-72
2022/01/22 11:28:38;;;;;;;3.30;2.33;;;;;;;5.42;48.26;93837.03;2072010;69;20152;-72
2022/01/22 11:31:04;;;;;;;3.30;2.08;;;;;;;5.48;47.86;93837.63;2071803;69;20231;-73
2022/01/22 11:33:33;;;;;;;3.80;2.45;;;;;;;5.59;47.33;93831.00;2071794;69;20505;-71
2022/01/22 11:36:09;;;;;;;3.95;2.35;;;;;;;5.61;47.65;93843.09;2071700;69;20141;-70
2022/01/22 11:38:39;;;;;;;4.88;2.70;;;;;;;5.71;47.31;93834.19;2071962;69;20148;-69
2022/01/22 11:41:16;;;;;;;2.97;2.05;;;;;;;5.13;48.27;93822.31;2071927;69;20152;-70
2022/01/22 11:44:12;;;;;;;3.53;2.03;;;;;;;5.44;47.94;93828.09;2071811;69;20148;-70
2022/01/22 11:46:40;;;;;;;2.58;1.58;;;;;;;5.30;48.58;93833.06;2071896;69;20635;-68
2022/01/22 11:49:26;;;;;;;2.60;1.70;;;;;;;5.39;48.09;93829.75;2068338;69;20128;-68
2022/01/22 11:52:10;;;;;;;4.30;2.17;;;;;;;5.48;47.75;93826.44;2071821;69;20136;-69
2022/01/22 11:55:01;;;;;;;5.18;2.92;;;;;;;5.32;48.69;93825.63;2071790;69;20163;-70
2022/01/22 11:57:29;;;;;;;5.00;2.58;;;;;;;5.30;48.79;93831.00;2071728;69;20191;-69
2022/01/22 12:00:21;;;;;;;5.10;2.50;;;;;;;5.14;49.34;93818.25;2071763;69;20144;-68
2022/01/22 12:03:08;;;;;;;9.73;2.90;;;;;;;5.52;48.03;93823.31;2071738;69;20615;-70
2022/01/22 12:05:55;;;;;;;5.88;2.38;;;;;;;5.63;47.82;93816.66;2071569;69;20144;-69
2022/01/22 12:08:22;;;;;;;4.47;2.65;;;;;;;5.55;47.66;93819.41;2071843;69;20144;-69
2022/01/22 12:14:28;;;;;;;4.43;2.00;;;;;;;5.60;48.58;93822.06;2071685;69;20620;-68
2022/01/22 12:16:39;;;;;;;2.95;1.95;;;;;;;5.70;48.26;93813.16;2071694;69;20133;-68
2022/01/22 12:19:10;;;;;;;5.20;3.30;;;;;;;5.13;49.20;93805.56;2071551;69;20151;-69
2022/01/22 12:21:37;;;;;;;5.03;3.13;;;;;;;5.42;48.54;93808.38;2071695;69;20156;-71
2022/01/22 12:24:06;;;;;;;6.47;3.45;;;;;;;5.57;48.42;93816.81;2071666;69;20144;-69
2022/01/22 12:26:40;;;;;;;6.72;2.92;;;;;;;5.64;48.55;93809.78;2070436;69;20152;-76
2022/01/22 12:29:35;;;;;;;3.78;1.95;;;;;;;5.30;49.14;93810.72;2071682;69;20160;-72
2022/01/22 12:32:23;;;;;;;4.18;2.20;;;;;;;5.45;48.88;93810.03;2071863;69;20243;-73
2022/01/22 12:34:55;;;;;;;5.10;2.72;;;;;;;5.49;49.23;93804.84;2071476;69;20213;-75
2022/01/22 12:37:22;;;;;;;4.47;2.10;;;;;;;5.02;51.31;93803.84;2071818;69;20244;-75
2022/01/22 12:39:54;;;;;;;4.63;2.42;;;;;;;5.21;50.04;93803.59;2071671;69;20202;-69
2022/01/22 12:42:34;;;;;;;3.63;2.20;;;;;;;5.48;49.27;93797.78;2071927;69;20588;-73
2022/01/22 12:45:07;;;;;;;7.07;1.98;;;;;;;5.52;49.26;93798.16;2070332;69;20152;-73
2022/01/22 12:47:35;;;;;;;3.90;2.00;;;;;;;5.47;49.52;93799.06;2069592;69;20156;-67
2022/01/22 12:50:07;;;;;;;3.15;1.88;;;;;;;5.52;50.16;93790.53;2070396;69;20148;-72
2022/01/22 12:52:34;;;;;;;4.13;1.93;;;;;;;5.30;50.77;93794.69;2070132;69;20297;-75
2022/01/22 12:55:13;;;;;;;4.35;2.00;;;;;;;5.50;49.69;93792.41;2070185;69;20156;-69
2022/01/22 12:57:43;;;;;;;4.15;2.30;;;;;;;5.26;50.31;93785.94;2070674;69;20160;-69
2022/01/22 13:00:17;;;;;;;3.70;2.30;;;;;;;5.38;49.86;93774.47;2071042;69;20194;-69
2022/01/22 13:02:44;;;;;;;9.25;2.58;;;;;;;5.66;50.04;93779.97;2071008;69;20156;-69
2022/01/22 13:05:12;;;;;;;3.33;1.70;;;;;;;5.50;49.73;93781.97;2070976;69;20152;-72
2022/01/22 13:07:56;;;;;;;4.05;2.10;;;;;;;5.32;50.45;93778.16;2070827;69;20190;-69
2022/01/22 13:10:45;;;;;;;5.80;2.03;;;;;;;5.69;49.97;93783.72;2071083;69;20155;-69
2022/01/22 13:13:16;;;;;;;5.70;2.75;;;;;;;5.77;49.77;93781.69;2070981;69;20160;-71
2022/01/22 13:15:42;;;;;;;5.13;3.08;;;;;;;5.93;50.31;93779.72;2067674;69;20153;-67
2022/01/22 13:18:07;;;;;;;15.65;7.53;;;;;;;5.90;49.97;93781.53;2070789;69;20450;-68
2022/01/22 13:20:35;;;;;;;7.28;3.90;;;;;;;5.96;49.48;93784.22;2070797;69;20233;-67
2022/01/22 13:23:18;;;;;;;5.13;1.90;;;;;;;5.36;51.90;93775.03;2070864;69;20157;-67
2022/01/22 13:25:44;;;;;;;;;;;;;;;5.59;51.98;93781.44;2071120;69;20227;-67
2022/01/22 13:28:12;;;;;;;2.72;1.80;;;;;;;5.62;51.10;93782.38;2067495;69;20047;-68
2022/01/22 13:30:45;;;;;;;6.40;2.80;;;;;;;5.30;52.82;93780.00;2069062;69;20179;-67
2022/01/22 13:33:20;;;;;;;3.35;2.17;;;;;;;5.41;52.05;93781.75;2070691;69;20243;-68
2022/01/22 13:49:26;;;;;;;7.05;4.47;;;;;;;5.78;50.27;93799.97;2071215;69;20213;-70